Time;durP1;ratioP1;P1;durP2;ratioP2;P2;SDS_P1;SDS_P2;PMS_P1;PMS_P2;Temp;Humidity;BMP_temperature;BMP_pressure;BME280_temperature;BME280_humidity;BME280_pressure;Samples;Min_cycle;Max_cycle;Signal;HPM_P1;HPM_P2
2021/03/23 00:00:26;;;;;;;11.60;6.80;;;6.70;72.90;;;;;;5054615;28;20184;-88
2021/03/23 00:03:02;;;;;;;10.93;7.37;;;6.80;73.50;;;;;;5034000;28;20204;-88
2021/03/23 00:05:28;;;;;;;10.33;7.07;;;6.70;73.70;;;;;;5035981;28;20201;-88
2021/03/23 00:07:54;;;;;;;8.33;6.93;;;6.70;73.70;;;;;;5035449;28;20604;-89
2021/03/23 00:10:27;;;;;;;8.70;7.10;;;6.70;74.20;;;;;;5042895;28;20184;-88
2021/03/23 00:12:53;;;;;;;9.70;7.43;;;6.70;73.90;;;;;;5043442;28;20189;-89
2021/03/23 00:15:20;;;;;;;10.57;7.90;;;6.70;73.90;;;;;;5045511;28;20189;-88
2021/03/23 00:17:46;;;;;;;9.50;7.10;;;6.70;74.00;;;;;;5043700;28;20208;-89
2021/03/23 00:20:14;;;;;;;8.70;7.60;;;6.70;73.70;;;;;;5044626;28;20184;-88
2021/03/23 00:22:40;;;;;;;10.53;7.13;;;6.60;73.90;;;;;;5043278;28;20189;-89
2021/03/23 00:25:08;;;;;;;7.80;6.83;;;6.70;73.90;;;;;;5044572;28;20552;-88
2021/03/23 00:27:35;;;;;;;8.60;6.90;;;6.70;74.40;;;;;;5044248;28;20959;-89
2021/03/23 00:30:01;;;;;;;10.20;6.87;;;6.70;74.00;;;;;;5044523;28;20190;-88
2021/03/23 00:32:27;;;;;;;10.73;6.40;;;6.70;73.60;;;;;;5043869;28;20204;-89
2021/03/23 00:34:53;;;;;;;12.80;7.57;;;6.70;74.10;;;;;;5054477;28;20200;-88
2021/03/23 00:37:19;;;;;;;10.67;6.83;;;6.70;74.00;;;;;;5064766;28;20214;-88
2021/03/23 00:39:45;;;;;;;7.70;6.93;;;6.70;73.90;;;;;;5064722;28;20188;-89
2021/03/23 00:42:11;;;;;;;7.70;6.40;;;6.60;74.30;;;;;;5063557;28;20250;-88
2021/03/23 00:44:37;;;;;;;8.73;6.97;;;6.60;74.30;;;;;;5057632;28;20200;-88
2021/03/23 00:47:03;;;;;;;8.27;6.83;;;6.70;74.20;;;;;;5043986;28;20197;-88
2021/03/23 00:49:28;;;;;;;8.20;6.70;;;6.70;74.10;;;;;;5042264;28;20189;-89
2021/03/23 00:51:55;;;;;;;7.87;5.97;;;6.70;74.10;;;;;;5053169;28;20560;-88
2021/03/23 00:54:21;;;;;;;10.20;6.60;;;6.60;74.40;;;;;;5059737;28;20595;-89
2021/03/23 00:56:46;;;;;;;10.17;6.60;;;6.50;75.20;;;;;;5043260;28;20205;-89
2021/03/23 00:59:12;;;;;;;8.27;6.83;;;6.50;74.70;;;;;;5043517;28;20235;-88
2021/03/23 01:01:38;;;;;;;7.87;7.03;;;6.60;74.50;;;;;;5051470;28;20200;-88
2021/03/23 01:04:04;;;;;;;9.27;7.00;;;6.60;74.40;;;;;;5048584;28;20205;-88
2021/03/23 01:06:30;;;;;;;8.23;6.83;;;6.60;74.20;;;;;;5044661;28;20240;-87
2021/03/23 01:08:56;;;;;;;9.17;6.53;;;6.70;74.20;;;;;;5044480;28;20185;-88
2021/03/23 01:11:22;;;;;;;7.90;6.57;;;6.70;74.90;;;;;;5042923;28;20684;-89
2021/03/23 01:13:48;;;;;;;7.30;6.30;;;6.70;74.30;;;;;;5056458;28;20689;-89
2021/03/23 01:16:14;;;;;;;8.07;6.40;;;6.70;73.90;;;;;;5063956;28;20186;-89
2021/03/23 01:18:40;;;;;;;7.63;6.63;;;6.70;73.50;;;;;;5064308;28;20195;-89
2021/03/23 01:21:06;;;;;;;7.03;6.37;;;6.70;73.70;;;;;;5064036;28;20196;-89
2021/03/23 01:23:33;;;;;;;8.17;7.00;;;6.70;74.00;;;;;;5064103;28;20176;-88
2021/03/23 01:25:59;;;;;;;10.93;7.87;;;6.80;73.80;;;;;;5062634;28;20258;-89
2021/03/23 01:28:24;;;;;;;8.53;6.90;;;6.60;74.80;;;;;;5063459;28;20189;-88
2021/03/23 01:30:50;;;;;;;8.80;7.03;;;6.60;74.70;;;;;;5046911;28;20722;-88
2021/03/23 01:33:16;;;;;;;8.13;6.60;;;6.60;74.70;;;;;;5056123;28;20268;-89
2021/03/23 01:35:42;;;;;;;8.60;6.57;;;6.70;74.50;;;;;;5043538;28;20189;-88
2021/03/23 01:38:08;;;;;;;9.37;6.73;;;6.70;74.50;;;;;;5043078;28;20185;-88
2021/03/23 01:40:34;;;;;;;9.50;6.47;;;6.70;74.40;;;;;;5042862;28;20209;-88
2021/03/23 01:43:04;;;;;;;10.17;6.90;;;6.70;74.10;;;;;;5049485;28;20192;-89
2021/03/23 01:45:36;;;;;;;7.70;6.37;;;6.60;74.50;;;;;;5064195;28;20290;-88
2021/03/23 01:48:15;;;;;;;9.43;7.13;;;6.60;74.30;;;;;;5050119;28;20648;-89
2021/03/23 01:50:41;;;;;;;11.17;7.17;;;6.70;74.60;;;;;;5044216;28;20676;-89
2021/03/23 01:53:15;;;;;;;7.73;6.93;;;6.60;74.70;;;;;;5056285;28;20185;-88
2021/03/23 01:55:40;;;;;;;9.00;7.00;;;6.60;74.30;;;;;;5044196;28;20665;-89
2021/03/23 01:58:08;;;;;;;9.30;6.90;;;6.60;74.30;;;;;;5043561;28;20177;-89
2021/03/23 02:00:34;;;;;;;9.63;7.27;;;6.60;74.60;;;;;;5043918;28;20201;-89
2021/03/23 02:03:02;;;;;;;7.53;6.60;;;6.60;75.00;;;;;;5049317;28;20188;-89
2021/03/23 02:05:31;;;;;;;8.90;7.37;;;6.60;74.80;;;;;;5063859;28;20215;-89
2021/03/23 02:07:58;;;;;;;8.03;7.20;;;6.70;74.80;;;;;;5063748;28;20255;-88
2021/03/23 02:10:24;;;;;;;9.43;7.37;;;6.70;74.20;;;;;;5064051;28;20244;-89
2021/03/23 02:12:51;;;;;;;8.70;7.60;;;6.60;75.00;;;;;;5063207;28;20172;-89
2021/03/23 02:15:21;;;;;;;8.50;6.80;;;6.50;75.00;;;;;;5063117;28;20208;-89
2021/03/23 02:18:07;;;;;;;8.40;7.33;;;6.50;74.80;;;;;;5073753;28;20160;-88
2021/03/23 02:20:35;;;;;;;9.33;7.17;;;6.50;74.70;;;;;;5074771;28;20210;-88
2021/03/23 02:23:07;;;;;;;6.93;6.33;;;6.60;74.70;;;;;;5061739;28;20187;-88
2021/03/23 02:25:34;;;;;;;7.97;6.93;;;6.50;75.00;;;;;;5063583;28;20268;-88
2021/03/23 02:28:00;;;;;;;7.13;6.43;;;6.60;75.00;;;;;;5063291;28;20172;-89
2021/03/23 02:30:39;;;;;;;8.37;7.10;;;6.60;74.80;;;;;;5063021;28;20199;-88
2021/03/23 02:33:07;;;;;;;8.90;7.67;;;6.60;75.10;;;;;;5059326;28;20172;-89
2021/03/23 02:35:33;;;;;;;7.50;6.80;;;6.50;75.30;;;;;;5044683;28;20173;-88
2021/03/23 02:38:00;;;;;;;9.17;7.20;;;6.50;75.90;;;;;;5042893;28;20256;-88
2021/03/23 02:40:27;;;;;;;9.57;6.77;;;6.40;76.20;;;;;;5043477;28;20181;-88
2021/03/23 02:42:54;;;;;;;10.50;7.07;;;6.50;76.10;;;;;;5043487;28;20254;-89
2021/03/23 02:45:20;;;;;;;9.33;6.90;;;6.50;75.30;;;;;;5043455;28;20287;-89
2021/03/23 02:47:46;;;;;;;11.03;7.87;;;6.60;74.80;;;;;;5043376;28;20183;-88
2021/03/23 02:50:12;;;;;;;9.17;7.43;;;6.50;75.50;;;;;;5042021;28;20184;-88
2021/03/23 02:52:38;;;;;;;10.43;7.83;;;6.50;75.20;;;;;;5055440;28;20180;-88
2021/03/23 02:55:05;;;;;;;8.27;7.47;;;6.50;75.20;;;;;;5063014;28;20234;-89
2021/03/23 02:57:30;;;;;;;8.27;7.33;;;6.50;74.80;;;;;;5062799;28;20252;-88
2021/03/23 02:59:56;;;;;;;9.70;7.80;;;6.60;74.70;;;;;;5060439;28;20192;-88
2021/03/23 03:02:22;;;;;;;10.17;7.63;;;6.50;75.20;;;;;;5055686;28;20291;-88
2021/03/23 03:04:48;;;;;;;10.57;8.30;;;6.50;75.50;;;;;;5044461;28;20322;-88
2021/03/23 03:07:13;;;;;;;10.03;8.50;;;6.50;75.70;;;;;;5062896;28;20176;-89
2021/03/23 03:09:39;;;;;;;8.43;7.13;;;6.50;76.20;;;;;;5057044;28;20203;-88
2021/03/23 03:12:06;;;;;;;8.90;7.87;;;6.50;75.60;;;;;;5042150;28;20201;-88
2021/03/23 03:14:32;;;;;;;9.17;8.17;;;6.60;75.30;;;;;;5062840;28;20183;-88
2021/03/23 03:16:58;;;;;;;9.37;8.03;;;6.50;75.40;;;;;;5062432;28;20200;-89
2021/03/23 03:19:23;;;;;;;9.90;7.43;;;6.60;75.20;;;;;;5060112;28;20253;-88
2021/03/23 03:21:49;;;;;;;10.97;8.47;;;6.60;75.10;;;;;;5041446;28;20260;-88
2021/03/23 03:24:15;;;;;;;10.03;7.57;;;6.60;76.10;;;;;;5041310;28;20212;-89
2021/03/23 03:26:41;;;;;;;9.87;7.50;;;6.60;75.50;;;;;;5043811;28;20183;-88
2021/03/23 03:29:07;;;;;;;9.20;7.37;;;6.60;75.20;;;;;;5046574;28;20181;-89
2021/03/23 03:31:33;;;;;;;13.23;8.27;;;6.70;75.30;;;;;;5045334;28;20208;-89
2021/03/23 03:34:00;;;;;;;8.33;7.27;;;6.60;75.40;;;;;;5046164;28;20192;-88
2021/03/23 03:36:28;;;;;;;9.13;7.23;;;6.70;75.30;;;;;;5046193;28;20170;-88
2021/03/23 03:38:55;;;;;;;9.70;7.83;;;6.70;75.10;;;;;;5045050;28;20188;-88
2021/03/23 03:41:22;;;;;;;9.70;7.53;;;6.60;75.60;;;;;;5064825;28;20212;-89
2021/03/23 03:43:48;;;;;;;11.97;7.90;;;6.60;75.50;;;;;;5065468;28;20177;-88
2021/03/23 03:46:14;;;;;;;10.07;7.83;;;6.50;75.40;;;;;;5065920;28;20248;-88
2021/03/23 03:48:40;;;;;;;9.27;7.60;;;6.60;75.40;;;;;;5066244;28;20181;-87
2021/03/23 03:51:06;;;;;;;8.60;7.60;;;6.60;75.20;;;;;;5049451;28;20292;-88
2021/03/23 03:53:32;;;;;;;8.77;7.23;;;6.60;75.00;;;;;;5064871;28;20557;-88
2021/03/23 03:55:59;;;;;;;9.40;7.50;;;6.60;75.20;;;;;;5065066;28;20181;-89
2021/03/23 03:58:24;;;;;;;11.50;7.50;;;6.50;75.30;;;;;;5048241;28;20195;-88
2021/03/23 04:00:50;;;;;;;8.73;7.83;;;6.50;75.80;;;;;;5061059;28;20200;-89
2021/03/23 04:03:22;;;;;;;7.97;7.03;;;6.50;75.90;;;;;;5045349;28;20189;-89
2021/03/23 04:05:49;;;;;;;8.30;7.10;;;6.40;76.00;;;;;;5028405;28;20205;-89
2021/03/23 04:08:20;;;;;;;9.07;7.30;;;6.40;76.00;;;;;;5046210;28;20323;-87
2021/03/23 04:10:49;;;;;;;10.57;7.60;;;6.50;76.00;;;;;;5045031;28;20335;-87
2021/03/23 04:13:16;;;;;;;11.00;7.80;;;6.50;76.00;;;;;;5028600;28;20185;-87
2021/03/23 04:15:45;;;;;;;8.77;7.50;;;6.50;76.70;;;;;;5046019;28;20239;-87
2021/03/23 04:18:13;;;;;;;10.00;7.40;;;6.50;76.90;;;;;;5051080;28;20187;-87
2021/03/23 04:20:39;;;;;;;9.30;6.57;;;6.50;76.50;;;;;;5064079;28;20256;-89
2021/03/23 04:23:08;;;;;;;9.53;7.97;;;6.40;76.70;;;;;;5065480;28;20185;-87
2021/03/23 04:25:35;;;;;;;9.27;7.80;;;6.40;76.90;;;;;;5066104;28;20201;-88
2021/03/23 04:28:01;;;;;;;9.57;7.13;;;6.40;76.70;;;;;;5047367;28;20172;-90
2021/03/23 04:30:28;;;;;;;10.20;7.67;;;6.40;77.00;;;;;;5065166;28;20211;-87
2021/03/23 04:32:56;;;;;;;9.83;6.93;;;6.40;76.60;;;;;;5064857;28;20188;-88
2021/03/23 04:35:32;;;;;;;8.37;7.07;;;6.50;76.50;;;;;;5065844;28;20169;-87
2021/03/23 04:37:57;;;;;;;8.67;7.27;;;6.40;76.30;;;;;;5065072;28;20187;-89
2021/03/23 04:40:23;;;;;;;9.00;7.03;;;6.50;76.40;;;;;;5065172;28;20246;-87
2021/03/23 04:42:49;;;;;;;9.33;7.27;;;6.40;76.80;;;;;;5065804;28;20188;-88
2021/03/23 04:45:16;;;;;;;9.17;7.30;;;6.40;77.10;;;;;;5064278;28;20208;-88
2021/03/23 04:47:41;;;;;;;7.97;6.87;;;6.40;76.90;;;;;;5064176;28;20188;-88
2021/03/23 04:50:08;;;;;;;8.17;6.93;;;6.50;76.80;;;;;;5067258;28;20177;-87
2021/03/23 04:52:34;;;;;;;9.70;7.47;;;6.40;77.10;;;;;;5063305;28;20189;-87
2021/03/23 04:54:59;;;;;;;9.73;7.83;;;6.40;77.20;;;;;;5044419;28;20192;-87
2021/03/23 04:57:25;;;;;;;8.57;7.30;;;6.30;77.60;;;;;;5044307;28;20181;-88
2021/03/23 04:59:52;;;;;;;7.43;6.70;;;6.40;77.80;;;;;;5046843;28;20230;-88
2021/03/23 05:02:18;;;;;;;10.43;8.27;;;6.40;77.60;;;;;;5056215;28;20239;-88
2021/03/23 05:04:43;;;;;;;8.73;7.40;;;6.40;77.50;;;;;;5063985;28;20211;-88
2021/03/23 05:07:09;;;;;;;9.63;7.60;;;6.30;78.10;;;;;;5046174;28;20187;-87
2021/03/23 05:09:35;;;;;;;9.33;7.27;;;6.20;78.90;;;;;;5047481;28;20188;-89
2021/03/23 05:12:01;;;;;;;8.87;7.17;;;6.20;79.30;;;;;;5044938;28;20247;-88
2021/03/23 05:14:26;;;;;;;7.27;6.57;;;6.20;79.00;;;;;;5044446;28;20637;-89
2021/03/23 05:16:52;;;;;;;7.87;6.53;;;6.20;79.20;;;;;;5044315;28;20185;-90
2021/03/23 05:19:18;;;;;;;7.00;6.33;;;6.20;78.50;;;;;;5055479;28;20198;-89
2021/03/23 05:21:43;;;;;;;8.40;7.00;;;6.30;79.60;;;;;;5063785;28;20200;-88
2021/03/23 05:24:10;;;;;;;9.33;7.17;;;6.30;78.80;;;;;;5061851;28;20204;-90
2021/03/23 05:26:36;;;;;;;8.50;6.17;;;6.30;78.40;;;;;;5078392;28;20211;-90
2021/03/23 05:29:02;;;;;;;7.30;6.53;;;6.30;78.30;;;;;;5062261;28;20191;-90
2021/03/23 05:31:28;;;;;;;15.27;7.60;;;6.40;77.90;;;;;;5063314;28;20203;-89
2021/03/23 05:33:54;;;;;;;10.10;7.00;;;6.30;78.50;;;;;;5058580;28;20180;-89
2021/03/23 05:36:21;;;;;;;8.97;7.13;;;6.40;78.80;;;;;;5055843;28;20268;-88
2021/03/23 05:38:46;;;;;;;9.83;7.53;;;6.30;78.90;;;;;;5058760;28;20181;-89
2021/03/23 05:41:43;;;;;;;7.93;6.47;;;6.30;79.00;;;;;;5072120;28;20235;-89
2021/03/23 05:44:44;;;;;;;10.27;6.77;;;6.30;78.40;;;;;;5060594;28;20592;-89
2021/03/23 05:47:13;;;;;;;10.17;7.50;;;6.30;78.50;;;;;;5059254;28;20175;-89
2021/03/23 05:49:57;;;;;;;10.33;6.07;;;6.40;78.00;;;;;;5059387;28;20318;-90
2021/03/23 05:53:04;;;;;;;8.47;7.50;;;6.40;78.10;;;;;;5058837;28;20211;-89
2021/03/23 05:55:43;;;;;;;9.10;7.00;;;6.40;78.40;;;;;;5005710;28;20220;-88
2021/03/23 05:58:20;;;;;;;9.07;6.53;;;6.40;78.60;;;;;;5044254;28;20192;-90
2021/03/23 06:00:59;;;;;;;7.37;6.43;;;6.40;78.80;;;;;;5039008;28;20208;-89
2021/03/23 06:03:44;;;;;;;6.83;6.13;;;6.40;78.20;;;;;;5038437;28;20195;-90
2021/03/23 06:06:27;;;;;;;12.70;7.23;;;6.50;77.70;;;;;;5038698;28;20204;-89
2021/03/23 06:08:53;;;;;;;8.73;6.67;;;6.50;78.30;;;;;;5038315;28;20177;-87
2021/03/23 06:11:45;;;;;;;8.10;6.20;;;6.50;79.20;;;;;;5042178;28;20265;-88
2021/03/23 06:14:32;;;;;;;8.50;6.30;;;6.50;78.50;;;;;;5057501;28;20164;-86
2021/03/23 06:17:10;;;;;;;6.90;5.90;;;6.40;78.50;;;;;;5056443;28;20188;-87
2021/03/23 06:20:02;;;;;;;8.07;7.27;;;6.50;78.50;;;;;;5056405;28;20229;-87
2021/03/23 06:22:54;;;;;;;9.27;7.40;;;6.60;78.80;;;;;;5056353;28;20204;-86
2021/03/23 06:25:36;;;;;;;9.97;7.60;;;6.50;79.50;;;;;;5033867;28;20759;-87
2021/03/23 06:28:12;;;;;;;9.57;6.97;;;6.30;79.70;;;;;;5057051;28;20176;-87
2021/03/23 06:31:01;;;;;;;10.53;9.20;;;6.40;78.90;;;;;;5057090;28;20218;-87
2021/03/23 06:33:29;;;;;;;10.57;7.47;;;6.40;79.40;;;;;;5037235;28;20542;-86
2021/03/23 06:36:12;;;;;;;9.23;7.33;;;6.50;79.60;;;;;;5035389;28;20262;-86
2021/03/23 06:38:41;;;;;;;7.93;7.23;;;6.50;79.60;;;;;;5037942;28;20244;-86
2021/03/23 06:41:19;;;;;;;10.30;7.10;;;6.60;78.60;;;;;;5039116;28;20192;-85
2021/03/23 06:43:51;;;;;;;8.73;6.70;;;6.70;78.00;;;;;;5057032;28;20171;-86
2021/03/23 06:46:26;;;;;;;8.57;7.00;;;6.70;78.10;;;;;;5037383;28;20199;-87
2021/03/23 06:49:10;;;;;;;7.97;7.10;;;6.70;78.10;;;;;;5037169;28;20165;-86
2021/03/23 06:51:36;;;;;;;7.17;6.47;;;6.70;77.80;;;;;;5038261;28;20220;-87
2021/03/23 06:54:24;;;;;;;12.47;9.70;;;6.80;77.90;;;;;;5056698;28;20218;-87
2021/03/23 06:57:21;;;;;;;11.23;8.10;;;6.80;77.10;;;;;;5057027;28;20227;-87
2021/03/23 06:59:55;;;;;;;9.33;6.97;;;6.70;78.70;;;;;;5046027;28;20276;-87
2021/03/23 07:02:51;;;;;;;9.10;7.23;;;6.70;78.70;;;;;;5058548;28;20200;-87
2021/03/23 07:05:38;;;;;;;12.13;9.47;;;6.80;78.10;;;;;;5048514;28;20592;-87
2021/03/23 07:08:07;;;;;;;8.13;7.10;;;6.80;77.70;;;;;;5059099;28;20173;-85
2021/03/23 07:10:40;;;;;;;9.47;7.20;;;6.80;77.50;;;;;;5044064;28;20855;-87
2021/03/23 07:13:09;;;;;;;13.00;7.60;;;6.90;76.90;;;;;;5060963;28;20211;-86
2021/03/23 07:15:37;;;;;;;8.23;7.43;;;6.90;77.30;;;;;;5058740;28;20195;-85
2021/03/23 07:18:05;;;;;;;9.93;7.33;;;7.00;77.30;;;;;;5060472;28;20192;-87
2021/03/23 07:20:34;;;;;;;11.37;6.70;;;7.00;77.10;;;;;;5060697;28;20197;-87
2021/03/23 07:23:26;;;;;;;13.50;9.70;;;7.00;77.10;;;;;;5061164;28;20236;-86
2021/03/23 07:25:53;;;;;;;10.83;7.67;;;7.00;77.10;;;;;;5058598;28;20249;-87
2021/03/23 07:28:38;;;;;;;8.53;7.57;;;7.10;77.80;;;;;;5045917;28;20193;-88
2021/03/23 07:31:26;;;;;;;7.40;6.70;;;7.20;78.00;;;;;;5036844;28;20204;-87
2021/03/23 07:34:10;;;;;;;9.77;7.03;;;7.30;77.10;;;;;;5038157;28;20840;-88
2021/03/23 07:36:45;;;;;;;9.47;7.17;;;7.20;76.70;;;;;;5048492;28;20603;-88
2021/03/23 07:39:44;;;;;;;8.00;7.20;;;7.40;76.80;;;;;;5036473;28;20197;-88
2021/03/23 07:42:20;;;;;;;9.87;7.40;;;7.30;77.20;;;;;;5052443;28;20220;-89
2021/03/23 07:45:38;;;;;;;11.47;7.37;;;7.40;76.70;;;;;;5046338;28;20193;-89
2021/03/23 07:48:18;;;;;;;11.30;8.00;;;7.30;76.40;;;;;;4985247;28;20190;-89
2021/03/23 07:50:46;;;;;;;10.53;7.77;;;7.20;76.00;;;;;;5038116;28;20196;-87
2021/03/23 07:53:40;;;;;;;9.07;7.80;;;7.20;75.90;;;;;;5055324;28;20184;-89
2021/03/23 07:56:34;;;;;;;12.40;8.10;;;7.10;77.10;;;;;;5043774;28;20195;-88
2021/03/23 07:59:28;;;;;;;10.17;8.00;;;7.10;77.50;;;;;;5049479;28;20256;-89
2021/03/23 08:02:17;;;;;;;11.77;7.63;;;7.20;76.90;;;;;;5054661;28;20684;-90
2021/03/23 08:04:54;;;;;;;13.13;9.00;;;7.10;76.90;;;;;;5027103;28;20212;-90
2021/03/23 08:07:34;;;;;;;9.73;7.67;;;7.50;74.90;;;;;;5044857;28;20176;-89
2021/03/23 08:10:16;;;;;;;15.03;8.90;;;7.60;73.40;;;;;;5054006;28;20184;-90
2021/03/23 08:13:04;;;;;;;14.87;9.93;;;7.70;74.00;;;;;;5054542;28;20184;-90
2021/03/23 08:15:57;;;;;;;11.80;8.57;;;7.80;73.30;;;;;;5054502;28;20203;-90
2021/03/23 08:18:37;;;;;;;11.43;8.90;;;7.70;73.10;;;;;;5049553;28;20507;-89
2021/03/23 08:21:32;;;;;;;16.13;9.90;;;7.90;72.80;;;;;;5054156;28;20211;-87
2021/03/23 08:24:09;;;;;;;13.37;10.53;;;8.00;71.40;;;;;;5047642;28;20203;-89
2021/03/23 08:27:06;;;;;;;11.50;9.87;;;8.00;72.00;;;;;;5054242;28;20188;-88
2021/03/23 08:29:45;;;;;;;19.03;11.33;;;8.10;71.40;;;;;;5045920;28;20189;-88
2021/03/23 08:32:15;;;;;;;15.63;10.63;;;8.00;72.10;;;;;;5055358;28;20207;-88
2021/03/23 08:35:11;;;;;;;16.60;11.77;;;8.10;71.80;;;;;;5055718;28;20184;-87
2021/03/23 08:38:04;;;;;;;10.67;9.57;;;8.10;70.20;;;;;;5051159;28;20185;-87
2021/03/23 08:41:03;;;;;;;15.97;11.50;;;8.20;70.00;;;;;;5053123;28;20184;-88
2021/03/23 08:43:40;;;;;;;15.00;11.13;;;8.30;70.50;;;;;;5053121;28;20204;-88
2021/03/23 08:46:26;;;;;;;10.97;9.80;;;8.30;70.10;;;;;;5044170;28;20207;-88
2021/03/23 08:49:00;;;;;;;14.43;11.17;;;8.50;68.90;;;;;;5050752;28;20235;-88
2021/03/23 08:51:29;;;;;;;19.70;11.73;;;8.60;68.20;;;;;;5052677;28;20568;-88
2021/03/23 08:54:02;;;;;;;13.63;12.17;;;8.60;68.00;;;;;;5043892;28;20304;-88
2021/03/23 08:56:45;;;;;;;12.90;11.50;;;8.70;68.00;;;;;;5055853;28;20205;-87
2021/03/23 08:59:33;;;;;;;16.90;12.00;;;8.80;67.90;;;;;;5069776;28;20240;-87
2021/03/23 09:02:01;;;;;;;14.77;13.27;;;9.00;67.30;;;;;;5063892;28;20212;-88
2021/03/23 09:04:32;;;;;;;15.27;12.27;;;9.00;66.50;;;;;;5056002;28;20220;-89
2021/03/23 09:07:02;;;;;;;17.53;12.97;;;9.00;64.80;;;;;;5056489;28;20184;-88
2021/03/23 09:09:30;;;;;;;14.33;12.27;;;9.00;65.40;;;;;;5055410;28;20195;-88
2021/03/23 09:12:15;;;;;;;19.13;14.23;;;8.90;65.70;;;;;;5051916;28;20208;-89
2021/03/23 09:15:27;;;;;;;20.27;14.30;;;9.00;65.80;;;;;;5047220;28;20548;-88
2021/03/23 09:18:25;;;;;;;16.00;13.47;;;9.20;64.00;;;;;;5030125;28;20279;-88
2021/03/23 09:20:50;;;;;;;19.63;14.20;;;9.20;64.00;;;;;;5051105;28;20298;-88
2021/03/23 09:23:16;;;;;;;18.00;14.40;;;9.20;65.60;;;;;;5051027;28;20576;-88
2021/03/23 09:25:42;;;;;;;16.93;13.53;;;9.20;63.90;;;;;;5051157;28;20196;-88
2021/03/23 09:28:11;;;;;;;15.40;13.23;;;9.20;64.00;;;;;;5049430;28;20176;-88
2021/03/23 09:30:48;;;;;;;18.03;14.57;;;9.20;63.00;;;;;;5051325;28;20204;-88
2021/03/23 09:33:36;;;;;;;21.03;14.67;;;9.20;61.90;;;;;;5050091;28;20191;-88
2021/03/23 09:36:14;;;;;;;20.40;15.03;;;9.30;62.20;;;;;;5048862;28;20184;-88
2021/03/23 09:38:45;;;;;;;16.63;14.50;;;9.50;61.50;;;;;;5045876;28;20723;-88
2021/03/23 09:41:23;;;;;;;16.97;14.10;;;9.50;62.30;;;;;;5046850;28;20317;-89
2021/03/23 09:44:15;;;;;;;17.47;13.13;;;9.70;62.20;;;;;;5043378;28;20195;-89
2021/03/23 09:46:54;;;;;;;18.07;13.30;;;9.80;59.40;;;;;;5036377;28;20201;-88
2021/03/23 09:49:27;;;;;;;16.20;13.47;;;9.90;58.80;;;;;;5043315;28;20211;-87
2021/03/23 09:51:57;;;;;;;17.13;13.33;;;9.90;58.30;;;;;;5044911;28;20232;-88
2021/03/23 09:54:38;;;;;;;16.00;14.13;;;9.90;57.70;;;;;;5048382;28;20184;-88
2021/03/23 09:57:16;;;;;;;15.83;13.87;;;9.80;56.00;;;;;;5054874;28;20276;-88
2021/03/23 09:59:47;;;;;;;18.17;13.50;;;9.90;56.60;;;;;;5055137;28;20203;-88
2021/03/23 10:02:35;;;;;;;15.83;13.60;;;10.00;55.10;;;;;;5054124;28;20242;-88
2021/03/23 10:05:16;;;;;;;17.83;13.17;;;10.00;55.60;;;;;;5049973;28;20204;-88
2021/03/23 10:07:43;;;;;;;15.37;13.03;;;10.00;55.40;;;;;;5053356;28;20263;-88
2021/03/23 10:10:41;;;;;;;19.73;13.10;;;10.10;54.70;;;;;;5052831;28;20184;-88
2021/03/23 10:13:28;;;;;;;13.90;12.40;;;10.10;54.20;;;;;;5043825;28;20207;-88
2021/03/23 10:15:56;;;;;;;16.83;13.00;;;10.20;53.90;;;;;;5053320;28;20184;-88
2021/03/23 10:18:29;;;;;;;16.80;13.80;;;10.20;53.90;;;;;;5052628;28;20188;-88
2021/03/23 10:21:02;;;;;;;18.23;12.93;;;10.20;53.80;;;;;;5050263;28;20208;-88
2021/03/23 10:23:30;;;;;;;14.47;13.07;;;10.30;55.90;;;;;;5046639;28;20191;-88
2021/03/23 10:25:57;;;;;;;18.73;13.53;;;10.30;53.90;;;;;;5049886;28;20342;-87
2021/03/23 10:28:32;;;;;;;14.93;12.90;;;10.50;52.90;;;;;;5041956;28;20181;-89
2021/03/23 10:31:10;;;;;;;16.87;13.20;;;10.60;52.80;;;;;;5049821;28;20211;-89
2021/03/23 10:33:39;;;;;;;16.77;14.00;;;10.70;52.50;;;;;;5051705;28;20729;-90
2021/03/23 10:36:11;;;;;;;16.33;14.17;;;10.80;51.30;;;;;;5039746;28;20646;-89
2021/03/23 10:38:43;;;;;;;17.50;14.27;;;10.90;51.10;;;;;;5039220;28;20184;-88
2021/03/23 10:41:19;;;;;;;16.30;13.57;;;11.00;50.90;;;;;;5040978;28;20259;-89
2021/03/23 10:43:50;;;;;;;16.17;13.43;;;11.10;50.70;;;;;;5046000;28;20230;-89
2021/03/23 10:46:32;;;;;;;14.40;12.97;;;11.20;49.90;;;;;;5043456;28;20213;-89
2021/03/23 10:49:28;;;;;;;15.43;11.90;;;11.20;49.30;;;;;;5048001;28;20260;-90
2021/03/23 10:52:00;;;;;;;12.73;11.33;;;11.20;50.70;;;;;;5045961;28;20196;-89
2021/03/23 10:54:30;;;;;;;11.23;10.10;;;11.30;49.10;;;;;;5037148;28;20185;-89
2021/03/23 10:56:59;;;;;;;14.33;11.47;;;11.40;48.80;;;;;;5041149;28;20215;-89
2021/03/23 10:59:32;;;;;;;15.10;10.93;;;11.60;48.20;;;;;;5036662;28;20193;-89
2021/03/23 11:02:00;;;;;;;12.33;10.90;;;11.00;49.30;;;;;;5046498;28;20204;-89
2021/03/23 11:04:27;;;;;;;12.77;11.47;;;11.30;48.30;;;;;;5043471;28;20213;-89
2021/03/23 11:06:53;;;;;;;11.10;10.00;;;11.60;47.70;;;;;;5044894;28;20603;-90
2021/03/23 11:09:20;;;;;;;11.83;9.50;;;11.70;48.30;;;;;;5054200;28;20263;-90
2021/03/23 11:11:49;;;;;;;13.73;8.87;;;11.90;46.20;;;;;;5055303;28;20205;-90
2021/03/23 11:14:38;;;;;;;9.67;8.67;;;11.70;46.20;;;;;;5054967;28;20260;-90
2021/03/23 11:17:24;;;;;;;11.00;9.57;;;11.40;47.20;;;;;;5056694;28;20189;-89
2021/03/23 11:19:57;;;;;;;13.63;10.23;;;11.30;47.30;;;;;;5014443;28;20224;-90
2021/03/23 11:22:53;;;;;;;13.17;11.10;;;11.20;49.20;;;;;;5051489;28;20240;-89
2021/03/23 11:25:21;;;;;;;16.10;11.37;;;11.20;47.90;;;;;;5049974;28;20205;-88
2021/03/23 11:27:47;;;;;;;13.43;10.83;;;11.10;50.00;;;;;;5051022;28;20184;-89
2021/03/23 11:30:21;;;;;;;15.17;11.53;;;11.00;49.70;;;;;;5054948;28;20275;-89
2021/03/23 11:32:49;;;;;;;16.63;12.10;;;11.00;50.00;;;;;;5053318;28;20200;-89
2021/03/23 11:35:15;;;;;;;13.50;11.50;;;11.00;50.90;;;;;;5065060;28;20193;-89
2021/03/23 11:37:40;;;;;;;14.70;11.57;;;11.00;50.00;;;;;;5054209;28;20184;-89
2021/03/23 11:40:07;;;;;;;15.83;11.37;;;10.80;50.80;;;;;;5057920;28;20203;-88
2021/03/23 11:42:46;;;;;;;14.67;11.87;;;10.60;50.80;;;;;;5058504;28;20238;-88
2021/03/23 11:45:35;;;;;;;13.63;11.77;;;10.50;51.50;;;;;;5053013;28;20196;-89
2021/03/23 11:48:20;;;;;;;13.63;11.77;;;10.50;51.00;;;;;;5054451;28;20188;-88
2021/03/23 11:50:50;;;;;;;14.27;11.30;;;10.60;50.80;;;;;;5057281;28;20580;-88
2021/03/23 11:53:17;;;;;;;12.83;11.47;;;10.70;50.80;;;;;;5056457;28;20243;-88
2021/03/23 11:55:45;;;;;;;16.57;11.10;;;10.80;50.30;;;;;;5058708;28;20184;-89
2021/03/23 11:58:13;;;;;;;12.83;10.30;;;10.80;50.10;;;;;;5057250;28;20184;-89
2021/03/23 12:00:39;;;;;;;12.90;9.47;;;10.70;50.30;;;;;;5049881;28;20209;-89
2021/03/23 12:03:08;;;;;;;14.27;11.73;;;10.80;49.70;;;;;;5044680;28;20188;-89
2021/03/23 12:05:36;;;;;;;16.93;9.83;;;10.70;50.00;;;;;;5049142;28;20250;-90
2021/03/23 12:08:32;;;;;;;14.60;10.37;;;10.80;49.90;;;;;;5056115;28;20640;-89
2021/03/23 12:11:08;;;;;;;14.00;9.87;;;11.00;49.40;;;;;;5055803;28;20212;-89
2021/03/23 12:13:58;;;;;;;12.57;10.37;;;10.80;50.10;;;;;;5055444;28;20682;-90
2021/03/23 12:16:58;;;;;;;11.77;9.43;;;10.60;50.60;;;;;;5053269;28;20219;-90
2021/03/23 12:19:30;;;;;;;11.83;9.87;;;10.80;50.50;;;;;;5066862;28;20176;-88
2021/03/23 12:21:56;;;;;;;10.43;9.27;;;11.00;49.80;;;;;;5076697;28;20216;-89
2021/03/23 12:24:22;;;;;;;12.37;9.33;;;11.20;49.90;;;;;;5058850;28;20307;-89
2021/03/23 12:26:49;;;;;;;12.23;9.63;;;11.20;49.90;;;;;;5046872;28;20723;-88
2021/03/23 12:29:15;;;;;;;12.10;9.53;;;11.50;49.40;;;;;;5042929;28;20714;-88
2021/03/23 12:31:40;;;;;;;11.30;8.73;;;11.50;49.10;;;;;;5040065;28;20211;-88
2021/03/23 12:34:06;;;;;;;10.73;8.87;;;11.70;47.70;;;;;;5045677;28;20191;-89
2021/03/23 12:36:32;;;;;;;9.67;8.70;;;11.90;46.70;;;;;;5046187;28;20292;-89
2021/03/23 12:38:59;;;;;;;8.93;8.10;;;11.80;47.10;;;;;;5049007;28;20196;-89
2021/03/23 12:41:31;;;;;;;10.40;6.70;;;11.90;46.30;;;;;;5046464;28;20735;-88
2021/03/23 12:43:57;;;;;;;8.40;7.57;;;11.90;45.50;;;;;;5048598;28;20274;-88
2021/03/23 12:46:24;;;;;;;7.27;6.57;;;11.80;47.50;;;;;;5040956;28;20210;-87
2021/03/23 12:48:49;;;;;;;7.03;6.33;;;11.90;46.60;;;;;;5045782;28;20182;-89
2021/03/23 12:51:29;;;;;;;6.87;6.17;;;12.00;45.90;;;;;;5052410;28;20220;-88
2021/03/23 12:53:55;;;;;;;6.33;5.70;;;12.10;45.90;;;;;;5045181;28;20196;-88
2021/03/23 12:56:21;;;;;;;9.37;7.17;;;11.90;45.20;;;;;;5036279;28;20252;-90
2021/03/23 12:58:47;;;;;;;15.87;14.77;;;12.00;46.30;;;;;;5049130;28;20183;-89
2021/03/23 13:01:14;;;;;;;6.60;5.93;;;12.00;45.60;;;;;;5046767;28;20200;-89
2021/03/23 13:03:41;;;;;;;7.30;6.00;;;11.90;45.90;;;;;;5046232;28;20235;-88
2021/03/23 13:06:08;;;;;;;6.90;6.27;;;11.90;46.20;;;;;;5045793;28;20613;-89
2021/03/23 13:08:36;;;;;;;9.00;6.80;;;11.90;46.20;;;;;;5052981;28;20253;-89
2021/03/23 13:11:15;;;;;;;7.10;6.40;;;11.90;45.70;;;;;;5055036;28;20268;-89
2021/03/23 13:14:03;;;;;;;11.83;10.73;;;12.00;45.70;;;;;;5066331;28;20689;-89